sensor_id;sensor_type;location;lat;lon;timestamp;P1;durP1;ratioP1;P2;durP2;ratioP2
16480;SDS011;44634;54.110;12.138;2022-10-31T00:00:45;28.90;;;25.50;;
16480;SDS011;44634;54.110;12.138;2022-10-31T00:03:13;31.13;;;23.57;;
16480;SDS011;44634;54.110;12.138;2022-10-31T00:05:41;26.90;;;23.00;;
16480;SDS011;44634;54.110;12.138;2022-10-31T00:08:11;27.47;;;23.53;;
16480;SDS011;44634;54.110;12.138;2022-10-31T00:10:40;26.43;;;21.43;;
16480;SDS011;44634;54.110;12.138;2022-10-31T00:13:09;26.87;;;22.37;;
16480;SDS011;44634;54.110;12.138;2022-10-31T00:15:38;25.77;;;21.80;;
16480;SDS011;44634;54.110;12.138;2022-10-31T00:18:07;27.17;;;21.43;;
16480;SDS011;44634;54.110;12.138;2022-10-31T00:20:36;26.63;;;22.77;;
16480;SDS011;44634;54.110;12.138;2022-10-31T00:23:04;26.47;;;21.67;;
16480;SDS011;44634;54.110;12.138;2022-10-31T00:25:34;26.77;;;21.07;;
16480;SDS011;44634;54.110;12.138;2022-10-31T00:28:05;24.80;;;21.23;;
16480;SDS011;44634;54.110;12.138;2022-10-31T00:30:34;26.17;;;21.53;;
16480;SDS011;44634;54.110;12.138;2022-10-31T00:33:02;24.80;;;21.73;;
16480;SDS011;44634;54.110;12.138;2022-10-31T00:35:30;25.00;;;21.67;;
16480;SDS011;44634;54.110;12.138;2022-10-31T00:37:59;23.97;;;21.07;;
16480;SDS011;44634;54.110;12.138;2022-10-31T00:40:27;23.77;;;20.57;;
16480;SDS011;44634;54.110;12.138;2022-10-31T00:42:54;23.73;;;20.93;;
16480;SDS011;44634;54.110;12.138;2022-10-31T00:45:24;23.60;;;20.43;;
16480;SDS011;44634;54.110;12.138;2022-10-31T00:47:52;23.47;;;20.77;;
16480;SDS011;44634;54.110;12.138;2022-10-31T00:50:20;23.87;;;20.47;;
16480;SDS011;44634;54.110;12.138;2022-10-31T00:52:47;22.13;;;19.70;;
16480;SDS011;44634;54.110;12.138;2022-10-31T00:55:15;23.20;;;20.03;;
16480;SDS011;44634;54.110;12.138;2022-10-31T00:57:45;23.83;;;20.00;;
16480;SDS011;44634;54.110;12.138;2022-10-31T01:00:13;20.63;;;18.43;;
16480;SDS011;44634;54.110;12.138;2022-10-31T01:02:44;22.37;;;19.97;;
16480;SDS011;44634;54.110;12.138;2022-10-31T01:05:12;21.70;;;19.33;;
16480;SDS011;44634;54.110;12.138;2022-10-31T01:07:40;24.03;;;19.70;;
16480;SDS011;44634;54.110;12.138;2022-10-31T01:10:09;23.60;;;20.13;;
16480;SDS011;44634;54.110;12.138;2022-10-31T01:12:38;24.53;;;19.67;;
16480;SDS011;44634;54.110;12.138;2022-10-31T01:15:08;28.07;;;20.07;;
16480;SDS011;44634;54.110;12.138;2022-10-31T01:17:36;24.73;;;19.73;;
16480;SDS011;44634;54.110;12.138;2022-10-31T01:20:07;25.27;;;20.63;;
16480;SDS011;44634;54.110;12.138;2022-10-31T01:22:37;28.17;;;22.60;;
16480;SDS011;44634;54.110;12.138;2022-10-31T01:25:05;25.03;;;20.77;;
16480;SDS011;44634;54.110;12.138;2022-10-31T01:27:34;25.60;;;20.93;;
16480;SDS011;44634;54.110;12.138;2022-10-31T01:30:03;23.27;;;19.40;;
16480;SDS011;44634;54.110;12.138;2022-10-31T01:32:31;22.17;;;19.80;;
16480;SDS011;44634;54.110;12.138;2022-10-31T01:34:59;22.87;;;20.43;;
16480;SDS011;44634;54.110;12.138;2022-10-31T01:37:28;25.53;;;21.57;;
16480;SDS011;44634;54.110;12.138;2022-10-31T01:39:58;25.23;;;21.43;;
16480;SDS011;44634;54.110;12.138;2022-10-31T01:42:25;25.33;;;21.20;;
16480;SDS011;44634;54.110;12.138;2022-10-31T01:44:55;26.17;;;20.83;;
16480;SDS011;44634;54.110;12.138;2022-10-31T01:47:37;25.40;;;20.77;;
16480;SDS011;44634;54.110;12.138;2022-10-31T01:50:14;23.53;;;19.83;;
16480;SDS011;44634;54.110;12.138;2022-10-31T01:52:52;24.57;;;20.00;;
16480;SDS011;44634;54.110;12.138;2022-10-31T01:55:21;24.77;;;18.73;;
16480;SDS011;44634;54.110;12.138;2022-10-31T01:57:57;25.23;;;19.97;;
16480;SDS011;44634;54.110;12.138;2022-10-31T02:00:29;23.60;;;20.87;;
16480;SDS011;44634;54.110;12.138;2022-10-31T02:02:57;24.40;;;19.53;;
16480;SDS011;44634;54.110;12.138;2022-10-31T02:05:27;21.67;;;19.30;;
16480;SDS011;44634;54.110;12.138;2022-10-31T02:07:58;23.10;;;19.67;;
16480;SDS011;44634;54.110;12.138;2022-10-31T02:10:30;23.37;;;20.80;;
16480;SDS011;44634;54.110;12.138;2022-10-31T02:13:01;26.83;;;20.73;;
16480;SDS011;44634;54.110;12.138;2022-10-31T02:15:30;31.90;;;20.73;;
16480;SDS011;44634;54.110;12.138;2022-10-31T02:17:59;22.70;;;20.17;;
16480;SDS011;44634;54.110;12.138;2022-10-31T02:20:29;31.60;;;22.20;;
16480;SDS011;44634;54.110;12.138;2022-10-31T02:26:20;29.47;;;21.47;;
16480;SDS011;44634;54.110;12.138;2022-10-31T02:29:05;23.37;;;19.80;;
16480;SDS011;44634;54.110;12.138;2022-10-31T02:31:58;25.20;;;20.80;;
16480;SDS011;44634;54.110;12.138;2022-10-31T02:34:34;28.30;;;20.83;;
16480;SDS011;44634;54.110;12.138;2022-10-31T02:37:11;30.03;;;21.33;;
16480;SDS011;44634;54.110;12.138;2022-10-31T02:39:44;28.23;;;21.00;;
16480;SDS011;44634;54.110;12.138;2022-10-31T02:42:22;26.17;;;20.90;;
16480;SDS011;44634;54.110;12.138;2022-10-31T02:44:59;25.73;;;21.03;;
16480;SDS011;44634;54.110;12.138;2022-10-31T02:47:33;27.43;;;22.17;;
16480;SDS011;44634;54.110;12.138;2022-10-31T02:50:04;26.70;;;21.87;;
16480;SDS011;44634;54.110;12.138;2022-10-31T02:52:36;26.23;;;20.87;;
16480;SDS011;44634;54.110;12.138;2022-10-31T02:55:10;24.40;;;21.33;;
16480;SDS011;44634;54.110;12.138;2022-10-31T02:57:39;25.83;;;21.23;;
16480;SDS011;44634;54.110;12.138;2022-10-31T03:00:09;25.40;;;21.10;;
16480;SDS011;44634;54.110;12.138;2022-10-31T03:02:44;25.40;;;20.77;;
16480;SDS011;44634;54.110;12.138;2022-10-31T03:05:27;26.00;;;21.03;;
16480;SDS011;44634;54.110;12.138;2022-10-31T03:08:06;25.70;;;21.27;;
16480;SDS011;44634;54.110;12.138;2022-10-31T03:10:42;24.90;;;21.53;;
16480;SDS011;44634;54.110;12.138;2022-10-31T03:13:16;25.83;;;21.33;;
16480;SDS011;44634;54.110;12.138;2022-10-31T03:15:56;24.90;;;21.33;;
16480;SDS011;44634;54.110;12.138;2022-10-31T03:18:36;24.60;;;20.83;;
16480;SDS011;44634;54.110;12.138;2022-10-31T03:21:09;23.27;;;19.87;;
16480;SDS011;44634;54.110;12.138;2022-10-31T03:23:40;25.33;;;20.80;;
16480;SDS011;44634;54.110;12.138;2022-10-31T03:26:12;23.33;;;20.23;;
16480;SDS011;44634;54.110;12.138;2022-10-31T03:28:43;24.93;;;20.37;;
16480;SDS011;44634;54.110;12.138;2022-10-31T03:31:14;23.43;;;20.13;;
16480;SDS011;44634;54.110;12.138;2022-10-31T03:33:46;24.07;;;20.13;;
16480;SDS011;44634;54.110;12.138;2022-10-31T03:36:16;23.13;;;19.90;;
16480;SDS011;44634;54.110;12.138;2022-10-31T03:38:45;23.37;;;19.87;;
16480;SDS011;44634;54.110;12.138;2022-10-31T03:41:14;23.27;;;19.30;;
16480;SDS011;44634;54.110;12.138;2022-10-31T03:43:51;24.33;;;20.40;;
16480;SDS011;44634;54.110;12.138;2022-10-31T03:46:28;22.23;;;19.20;;
16480;SDS011;44634;54.110;12.138;2022-10-31T03:48:57;23.77;;;20.10;;
16480;SDS011;44634;54.110;12.138;2022-10-31T03:51:27;22.57;;;20.00;;
16480;SDS011;44634;54.110;12.138;2022-10-31T03:54:01;23.93;;;20.13;;
16480;SDS011;44634;54.110;12.138;2022-10-31T03:56:36;21.20;;;19.00;;
16480;SDS011;44634;54.110;12.138;2022-10-31T03:59:08;22.10;;;19.33;;
16480;SDS011;44634;54.110;12.138;2022-10-31T04:01:43;25.73;;;19.57;;
16480;SDS011;44634;54.110;12.138;2022-10-31T04:04:17;22.67;;;19.73;;
16480;SDS011;44634;54.110;12.138;2022-10-31T04:06:46;21.57;;;18.43;;
16480;SDS011;44634;54.110;12.138;2022-10-31T04:09:16;22.53;;;19.37;;
16480;SDS011;44634;54.110;12.138;2022-10-31T04:11:48;21.37;;;18.33;;
16480;SDS011;44634;54.110;12.138;2022-10-31T04:14:18;19.90;;;17.77;;
16480;SDS011;44634;54.110;12.138;2022-10-31T04:16:48;21.70;;;19.37;;
16480;SDS011;44634;54.110;12.138;2022-10-31T04:19:17;21.90;;;19.20;;
16480;SDS011;44634;54.110;12.138;2022-10-31T04:21:45;21.93;;;19.20;;
16480;SDS011;44634;54.110;12.138;2022-10-31T04:24:13;23.37;;;19.50;;
16480;SDS011;44634;54.110;12.138;2022-10-31T04:26:41;22.07;;;18.17;;
16480;SDS011;44634;54.110;12.138;2022-10-31T04:29:08;19.80;;;17.70;;
16480;SDS011;44634;54.110;12.138;2022-10-31T04:31:36;20.40;;;18.07;;
16480;SDS011;44634;54.110;12.138;2022-10-31T04:34:04;21.80;;;18.50;;
16480;SDS011;44634;54.110;12.138;2022-10-31T04:36:34;21.50;;;18.20;;
16480;SDS011;44634;54.110;12.138;2022-10-31T04:39:02;20.07;;;17.07;;
16480;SDS011;44634;54.110;12.138;2022-10-31T04:41:30;20.47;;;17.70;;
16480;SDS011;44634;54.110;12.138;2022-10-31T04:43:58;20.10;;;17.20;;
16480;SDS011;44634;54.110;12.138;2022-10-31T04:46:26;19.60;;;16.77;;
16480;SDS011;44634;54.110;12.138;2022-10-31T04:48:53;18.17;;;16.27;;
16480;SDS011;44634;54.110;12.138;2022-10-31T04:51:21;21.83;;;17.87;;
16480;SDS011;44634;54.110;12.138;2022-10-31T04:53:51;19.30;;;17.03;;
16480;SDS011;44634;54.110;12.138;2022-10-31T04:56:18;19.30;;;17.20;;
16480;SDS011;44634;54.110;12.138;2022-10-31T04:58:46;20.00;;;17.90;;
16480;SDS011;44634;54.110;12.138;2022-10-31T05:01:14;20.37;;;16.87;;
16480;SDS011;44634;54.110;12.138;2022-10-31T05:03:42;19.60;;;17.43;;
16480;SDS011;44634;54.110;12.138;2022-10-31T05:06:09;19.07;;;16.80;;
16480;SDS011;44634;54.110;12.138;2022-10-31T05:08:37;20.00;;;17.07;;
16480;SDS011;44634;54.110;12.138;2022-10-31T05:11:07;18.10;;;16.20;;
16480;SDS011;44634;54.110;12.138;2022-10-31T05:13:34;18.40;;;16.47;;
16480;SDS011;44634;54.110;12.138;2022-10-31T05:16:02;19.23;;;16.50;;
16480;SDS011;44634;54.110;12.138;2022-10-31T05:18:30;21.60;;;17.27;;
16480;SDS011;44634;54.110;12.138;2022-10-31T05:20:58;17.40;;;15.60;;
16480;SDS011;44634;54.110;12.138;2022-10-31T05:23:26;20.37;;;16.77;;
16480;SDS011;44634;54.110;12.138;2022-10-31T05:25:54;20.13;;;16.80;;
16480;SDS011;44634;54.110;12.138;2022-10-31T05:28:23;18.53;;;16.13;;
16480;SDS011;44634;54.110;12.138;2022-10-31T05:30:50;18.63;;;16.27;;
16480;SDS011;44634;54.110;12.138;2022-10-31T05:33:18;18.87;;;16.40;;
16480;SDS011;44634;54.110;12.138;2022-10-31T05:35:46;18.07;;;16.17;;
16480;SDS011;44634;54.110;12.138;2022-10-31T05:38:14;18.13;;;16.20;;
16480;SDS011;44634;54.110;12.138;2022-10-31T05:40:42;18.57;;;16.17;;
16480;SDS011;44634;54.110;12.138;2022-10-31T05:43:10;17.13;;;15.33;;
16480;SDS011;44634;54.110;12.138;2022-10-31T05:45:39;17.30;;;14.97;;
16480;SDS011;44634;54.110;12.138;2022-10-31T05:48:07;18.47;;;15.63;;
16480;SDS011;44634;54.110;12.138;2022-10-31T05:50:35;16.47;;;14.77;;
16480;SDS011;44634;54.110;12.138;2022-10-31T05:53:05;15.80;;;14.03;;
16480;SDS011;44634;54.110;12.138;2022-10-31T05:55:33;19.57;;;14.67;;
16480;SDS011;44634;54.110;12.138;2022-10-31T05:58:01;16.97;;;15.17;;
16480;SDS011;44634;54.110;12.138;2022-10-31T06:00:29;18.50;;;15.53;;
16480;SDS011;44634;54.110;12.138;2022-10-31T06:02:59;19.43;;;15.30;;
16480;SDS011;44634;54.110;12.138;2022-10-31T06:05:27;79.43;;;58.03;;
16480;SDS011;44634;54.110;12.138;2022-10-31T06:07:55;29.33;;;22.73;;
16480;SDS011;44634;54.110;12.138;2022-10-31T06:10:24;37.87;;;25.33;;
16480;SDS011;44634;54.110;12.138;2022-10-31T06:12:54;21.30;;;17.30;;
16480;SDS011;44634;54.110;12.138;2022-10-31T06:15:22;19.27;;;16.03;;
16480;SDS011;44634;54.110;12.138;2022-10-31T06:18:02;17.80;;;15.90;;
16480;SDS011;44634;54.110;12.138;2022-10-31T06:20:31;17.60;;;15.37;;
16480;SDS011;44634;54.110;12.138;2022-10-31T06:22:59;18.87;;;16.10;;
16480;SDS011;44634;54.110;12.138;2022-10-31T06:25:36;22.90;;;16.80;;
16480;SDS011;44634;54.110;12.138;2022-10-31T06:28:04;18.70;;;15.73;;
16480;SDS011;44634;54.110;12.138;2022-10-31T06:30:32;17.27;;;15.37;;
16480;SDS011;44634;54.110;12.138;2022-10-31T06:33:04;20.20;;;15.90;;
16480;SDS011;44634;54.110;12.138;2022-10-31T06:35:32;18.83;;;16.03;;
16480;SDS011;44634;54.110;12.138;2022-10-31T06:38:00;21.53;;;16.47;;
16480;SDS011;44634;54.110;12.138;2022-10-31T06:40:29;17.90;;;16.00;;
16480;SDS011;44634;54.110;12.138;2022-10-31T06:42:57;22.33;;;16.27;;
16480;SDS011;44634;54.110;12.138;2022-10-31T06:45:25;20.73;;;16.13;;
16480;SDS011;44634;54.110;12.138;2022-10-31T06:47:53;22.87;;;16.57;;
16480;SDS011;44634;54.110;12.138;2022-10-31T06:50:43;22.23;;;17.23;;
16480;SDS011;44634;54.110;12.138;2022-10-31T06:53:11;24.17;;;16.73;;
16480;SDS011;44634;54.110;12.138;2022-10-31T06:55:40;19.87;;;17.27;;
16480;SDS011;44634;54.110;12.138;2022-10-31T06:58:09;17.83;;;15.87;;
16480;SDS011;44634;54.110;12.138;2022-10-31T07:00:38;25.50;;;17.37;;
16480;SDS011;44634;54.110;12.138;2022-10-31T07:03:06;23.93;;;17.43;;
16480;SDS011;44634;54.110;12.138;2022-10-31T07:05:37;25.40;;;17.30;;
16480;SDS011;44634;54.110;12.138;2022-10-31T07:08:08;30.67;;;22.33;;
16480;SDS011;44634;54.110;12.138;2022-10-31T07:10:38;133.97;;;81.53;;
16480;SDS011;44634;54.110;12.138;2022-10-31T07:13:09;68.03;;;44.70;;
16480;SDS011;44634;54.110;12.138;2022-10-31T07:15:39;47.23;;;28.57;;
16480;SDS011;44634;54.110;12.138;2022-10-31T07:18:09;41.13;;;25.23;;
16480;SDS011;44634;54.110;12.138;2022-10-31T07:20:38;54.03;;;25.73;;
16480;SDS011;44634;54.110;12.138;2022-10-31T07:23:08;52.17;;;28.00;;
16480;SDS011;44634;54.110;12.138;2022-10-31T07:25:36;53.60;;;29.57;;
16480;SDS011;44634;54.110;12.138;2022-10-31T07:28:04;52.53;;;29.53;;
16480;SDS011;44634;54.110;12.138;2022-10-31T07:30:35;52.90;;;28.50;;
16480;SDS011;44634;54.110;12.138;2022-10-31T07:33:04;55.37;;;29.93;;
16480;SDS011;44634;54.110;12.138;2022-10-31T07:35:32;63.97;;;31.37;;
16480;SDS011;44634;54.110;12.138;2022-10-31T07:38:08;62.27;;;30.83;;
16480;SDS011;44634;54.110;12.138;2022-10-31T07:40:37;64.13;;;31.93;;
16480;SDS011;44634;54.110;12.138;2022-10-31T07:43:05;64.30;;;32.73;;
16480;SDS011;44634;54.110;12.138;2022-10-31T07:45:40;65.63;;;32.07;;
16480;SDS011;44634;54.110;12.138;2022-10-31T07:48:08;69.03;;;33.10;;
16480;SDS011;44634;54.110;12.138;2022-10-31T07:50:36;64.63;;;32.53;;
16480;SDS011;44634;54.110;12.138;2022-10-31T07:53:04;72.17;;;33.63;;
16480;SDS011;44634;54.110;12.138;2022-10-31T07:55:36;91.63;;;39.87;;
16480;SDS011;44634;54.110;12.138;2022-10-31T07:58:05;71.37;;;36.60;;
16480;SDS011;44634;54.110;12.138;2022-10-31T08:00:35;71.63;;;33.67;;
16480;SDS011;44634;54.110;12.138;2022-10-31T08:03:07;71.97;;;35.53;;
16480;SDS011;44634;54.110;12.138;2022-10-31T08:05:36;79.60;;;33.30;;
16480;SDS011;44634;54.110;12.138;2022-10-31T08:08:07;73.00;;;35.20;;
16480;SDS011;44634;54.110;12.138;2022-10-31T08:10:37;104.03;;;32.30;;
16480;SDS011;44634;54.110;12.138;2022-10-31T08:13:07;75.50;;;34.80;;
16480;SDS011;44634;54.110;12.138;2022-10-31T08:15:36;82.40;;;33.93;;
16480;SDS011;44634;54.110;12.138;2022-10-31T08:18:06;84.37;;;35.43;;
16480;SDS011;44634;54.110;12.138;2022-10-31T08:20:38;123.87;;;29.70;;
16480;SDS011;44634;54.110;12.138;2022-10-31T08:23:06;69.67;;;34.27;;
16480;SDS011;44634;54.110;12.138;2022-10-31T08:25:38;95.80;;;32.60;;
16480;SDS011;44634;54.110;12.138;2022-10-31T08:28:08;81.23;;;31.73;;
16480;SDS011;44634;54.110;12.138;2022-10-31T08:30:37;127.00;;;30.30;;
16480;SDS011;44634;54.110;12.138;2022-10-31T08:33:06;72.30;;;32.13;;
16480;SDS011;44634;54.110;12.138;2022-10-31T08:35:36;122.67;;;31.87;;
16480;SDS011;44634;54.110;12.138;2022-10-31T08:38:04;82.80;;;34.93;;
16480;SDS011;44634;54.110;12.138;2022-10-31T08:40:34;95.20;;;35.30;;
16480;SDS011;44634;54.110;12.138;2022-10-31T08:43:04;110.27;;;53.40;;
16480;SDS011;44634;54.110;12.138;2022-10-31T08:45:33;90.87;;;35.17;;
16480;SDS011;44634;54.110;12.138;2022-10-31T08:48:04;83.80;;;33.70;;
16480;SDS011;44634;54.110;12.138;2022-10-31T08:50:34;78.20;;;36.63;;
16480;SDS011;44634;54.110;12.138;2022-10-31T08:53:03;107.80;;;33.83;;
16480;SDS011;44634;54.110;12.138;2022-10-31T08:55:35;92.23;;;34.80;;
16480;SDS011;44634;54.110;12.138;2022-10-31T08:58:10;78.70;;;36.10;;
16480;SDS011;44634;54.110;12.138;2022-10-31T09:00:39;100.43;;;35.77;;
16480;SDS011;44634;54.110;12.138;2022-10-31T09:03:09;84.90;;;36.10;;
16480;SDS011;44634;54.110;12.138;2022-10-31T09:05:39;79.83;;;36.87;;
16480;SDS011;44634;54.110;12.138;2022-10-31T09:08:07;78.13;;;36.13;;
16480;SDS011;44634;54.110;12.138;2022-10-31T09:10:42;78.77;;;34.70;;
16480;SDS011;44634;54.110;12.138;2022-10-31T09:13:12;75.80;;;35.40;;
16480;SDS011;44634;54.110;12.138;2022-10-31T09:15:42;73.63;;;33.73;;
16480;SDS011;44634;54.110;12.138;2022-10-31T09:18:11;76.03;;;33.73;;
16480;SDS011;44634;54.110;12.138;2022-10-31T09:20:40;67.63;;;32.87;;
16480;SDS011;44634;54.110;12.138;2022-10-31T09:23:10;76.10;;;32.90;;
16480;SDS011;44634;54.110;12.138;2022-10-31T09:25:39;71.23;;;30.30;;
16480;SDS011;44634;54.110;12.138;2022-10-31T09:28:16;66.53;;;29.43;;
16480;SDS011;44634;54.110;12.138;2022-10-31T09:30:46;65.93;;;28.70;;
16480;SDS011;44634;54.110;12.138;2022-10-31T09:33:14;65.63;;;29.87;;
16480;SDS011;44634;54.110;12.138;2022-10-31T09:35:42;61.37;;;28.37;;
16480;SDS011;44634;54.110;12.138;2022-10-31T09:38:10;61.97;;;27.73;;
16480;SDS011;44634;54.110;12.138;2022-10-31T09:40:41;51.47;;;26.57;;
16480;SDS011;44634;54.110;12.138;2022-10-31T09:43:17;55.03;;;28.10;;
16480;SDS011;44634;54.110;12.138;2022-10-31T09:45:53;53.30;;;26.30;;
16480;SDS011;44634;54.110;12.138;2022-10-31T09:48:34;54.97;;;26.70;;
16480;SDS011;44634;54.110;12.138;2022-10-31T09:51:10;53.23;;;26.37;;
16480;SDS011;44634;54.110;12.138;2022-10-31T09:53:43;57.53;;;25.97;;
16480;SDS011;44634;54.110;12.138;2022-10-31T09:56:17;54.23;;;26.03;;
16480;SDS011;44634;54.110;12.138;2022-10-31T09:58:50;50.10;;;25.03;;
16480;SDS011;44634;54.110;12.138;2022-10-31T10:01:25;46.90;;;22.87;;
16480;SDS011;44634;54.110;12.138;2022-10-31T10:04:15;46.93;;;23.87;;
16480;SDS011;44634;54.110;12.138;2022-10-31T10:06:53;47.13;;;21.90;;
16480;SDS011;44634;54.110;12.138;2022-10-31T10:09:22;50.30;;;23.93;;
16480;SDS011;44634;54.110;12.138;2022-10-31T10:11:55;45.83;;;23.23;;
16480;SDS011;44634;54.110;12.138;2022-10-31T10:14:42;45.93;;;23.43;;
16480;SDS011;44634;54.110;12.138;2022-10-31T10:17:24;46.50;;;22.40;;
16480;SDS011;44634;54.110;12.138;2022-10-31T10:20:08;44.30;;;22.60;;
16480;SDS011;44634;54.110;12.138;2022-10-31T10:22:47;45.43;;;22.60;;
16480;SDS011;44634;54.110;12.138;2022-10-31T10:25:20;43.90;;;23.63;;
16480;SDS011;44634;54.110;12.138;2022-10-31T10:27:52;42.47;;;21.20;;
16480;SDS011;44634;54.110;12.138;2022-10-31T10:30:32;41.50;;;22.37;;
16480;SDS011;44634;54.110;12.138;2022-10-31T10:33:05;45.37;;;20.83;;
16480;SDS011;44634;54.110;12.138;2022-10-31T10:35:39;40.53;;;21.83;;
16480;SDS011;44634;54.110;12.138;2022-10-31T10:38:13;39.23;;;21.60;;
16480;SDS011;44634;54.110;12.138;2022-10-31T10:40:44;39.57;;;20.53;;
16480;SDS011;44634;54.110;12.138;2022-10-31T10:43:21;39.57;;;21.33;;
16480;SDS011;44634;54.110;12.138;2022-10-31T10:46:03;38.83;;;20.67;;
16480;SDS011;44634;54.110;12.138;2022-10-31T10:49:03;45.87;;;21.17;;
16480;SDS011;44634;54.110;12.138;2022-10-31T10:51:40;42.07;;;22.17;;
16480;SDS011;44634;54.110;12.138;2022-10-31T10:54:39;40.43;;;19.03;;
16480;SDS011;44634;54.110;12.138;2022-10-31T10:57:12;45.53;;;18.80;;
16480;SDS011;44634;54.110;12.138;2022-10-31T11:00:00;40.63;;;19.10;;
16480;SDS011;44634;54.110;12.138;2022-10-31T11:02:32;38.67;;;19.10;;
16480;SDS011;44634;54.110;12.138;2022-10-31T11:05:00;38.70;;;19.23;;
16480;SDS011;44634;54.110;12.138;2022-10-31T11:07:37;40.00;;;18.33;;
16480;SDS011;44634;54.110;12.138;2022-10-31T11:10:05;39.63;;;18.40;;
16480;SDS011;44634;54.110;12.138;2022-10-31T11:12:41;37.43;;;19.13;;
16480;SDS011;44634;54.110;12.138;2022-10-31T11:15:17;40.77;;;18.93;;
16480;SDS011;44634;54.110;12.138;2022-10-31T11:17:49;46.57;;;19.07;;
16480;SDS011;44634;54.110;12.138;2022-10-31T11:20:24;39.67;;;18.27;;
16480;SDS011;44634;54.110;12.138;2022-10-31T11:23:02;43.03;;;19.17;;
16480;SDS011;44634;54.110;12.138;2022-10-31T11:25:50;42.23;;;20.20;;
16480;SDS011;44634;54.110;12.138;2022-10-31T11:28:20;43.83;;;18.30;;
16480;SDS011;44634;54.110;12.138;2022-10-31T11:30:48;42.17;;;18.90;;
16480;SDS011;44634;54.110;12.138;2022-10-31T11:33:21;40.80;;;19.03;;
16480;SDS011;44634;54.110;12.138;2022-10-31T11:35:56;40.07;;;18.33;;
16480;SDS011;44634;54.110;12.138;2022-10-31T11:38:26;41.77;;;18.73;;
16480;SDS011;44634;54.110;12.138;2022-10-31T11:41:00;42.67;;;19.17;;
16480;SDS011;44634;54.110;12.138;2022-10-31T11:43:37;37.23;;;16.93;;
16480;SDS011;44634;54.110;12.138;2022-10-31T11:46:09;38.03;;;17.30;;
16480;SDS011;44634;54.110;12.138;2022-10-31T11:48:39;36.67;;;17.03;;
16480;SDS011;44634;54.110;12.138;2022-10-31T11:51:19;34.90;;;16.20;;
16480;SDS011;44634;54.110;12.138;2022-10-31T11:53:50;33.30;;;15.00;;
16480;SDS011;44634;54.110;12.138;2022-10-31T11:56:25;31.33;;;14.47;;
16480;SDS011;44634;54.110;12.138;2022-10-31T11:58:56;32.53;;;14.30;;
16480;SDS011;44634;54.110;12.138;2022-10-31T12:01:27;31.80;;;14.27;;
16480;SDS011;44634;54.110;12.138;2022-10-31T12:04:00;36.10;;;16.13;;
16480;SDS011;44634;54.110;12.138;2022-10-31T12:06:36;36.17;;;15.23;;
16480;SDS011;44634;54.110;12.138;2022-10-31T12:09:10;33.07;;;15.57;;
16480;SDS011;44634;54.110;12.138;2022-10-31T12:11:49;34.03;;;15.03;;
16480;SDS011;44634;54.110;12.138;2022-10-31T12:14:32;33.53;;;14.13;;
16480;SDS011;44634;54.110;12.138;2022-10-31T12:17:05;61.57;;;34.80;;
16480;SDS011;44634;54.110;12.138;2022-10-31T12:19:44;34.07;;;14.10;;
16480;SDS011;44634;54.110;12.138;2022-10-31T12:22:29;28.27;;;12.37;;
16480;SDS011;44634;54.110;12.138;2022-10-31T12:28:02;28.93;;;13.13;;
16480;SDS011;44634;54.110;12.138;2022-10-31T12:30:46;36.30;;;14.80;;
16480;SDS011;44634;54.110;12.138;2022-10-31T12:33:27;31.23;;;13.40;;
16480;SDS011;44634;54.110;12.138;2022-10-31T12:36:18;24.27;;;11.77;;
16480;SDS011;44634;54.110;12.138;2022-10-31T12:41:51;25.77;;;11.40;;
16480;SDS011;44634;54.110;12.138;2022-10-31T12:44:36;25.40;;;11.10;;
16480;SDS011;44634;54.110;12.138;2022-10-31T12:47:23;24.97;;;10.77;;
16480;SDS011;44634;54.110;12.138;2022-10-31T12:50:01;24.97;;;10.97;;
16480;SDS011;44634;54.110;12.138;2022-10-31T12:52:48;26.87;;;12.30;;
16480;SDS011;44634;54.110;12.138;2022-10-31T12:58:17;27.20;;;11.93;;
16480;SDS011;44634;54.110;12.138;2022-10-31T13:00:50;26.67;;;11.27;;
16480;SDS011;44634;54.110;12.138;2022-10-31T13:03:25;26.73;;;12.33;;
16480;SDS011;44634;54.110;12.138;2022-10-31T13:06:02;26.67;;;11.03;;
16480;SDS011;44634;54.110;12.138;2022-10-31T13:08:35;25.13;;;10.77;;
16480;SDS011;44634;54.110;12.138;2022-10-31T13:11:10;21.57;;;10.37;;
16480;SDS011;44634;54.110;12.138;2022-10-31T13:13:43;24.03;;;10.47;;
16480;SDS011;44634;54.110;12.138;2022-10-31T13:16:16;20.43;;;10.27;;
16480;SDS011;44634;54.110;12.138;2022-10-31T13:18:46;22.30;;;10.07;;
16480;SDS011;44634;54.110;12.138;2022-10-31T13:21:19;21.90;;;10.13;;
16480;SDS011;44634;54.110;12.138;2022-10-31T13:23:50;23.67;;;9.93;;
16480;SDS011;44634;54.110;12.138;2022-10-31T13:26:21;16.47;;;9.97;;
16480;SDS011;44634;54.110;12.138;2022-10-31T13:29:00;20.10;;;9.53;;
16480;SDS011;44634;54.110;12.138;2022-10-31T13:31:33;22.87;;;10.70;;
16480;SDS011;44634;54.110;12.138;2022-10-31T13:34:03;25.57;;;10.97;;
16480;SDS011;44634;54.110;12.138;2022-10-31T13:36:36;25.47;;;10.70;;
16480;SDS011;44634;54.110;12.138;2022-10-31T13:39:14;27.13;;;11.43;;
16480;SDS011;44634;54.110;12.138;2022-10-31T13:41:51;33.20;;;16.37;;
16480;SDS011;44634;54.110;12.138;2022-10-31T13:44:24;20.07;;;11.60;;
16480;SDS011;44634;54.110;12.138;2022-10-31T13:46:57;19.13;;;10.43;;
16480;SDS011;44634;54.110;12.138;2022-10-31T13:49:35;20.40;;;10.27;;
16480;SDS011;44634;54.110;12.138;2022-10-31T13:52:15;18.07;;;10.23;;
16480;SDS011;44634;54.110;12.138;2022-10-31T13:54:51;24.73;;;11.43;;
16480;SDS011;44634;54.110;12.138;2022-10-31T13:57:24;20.97;;;10.80;;
16480;SDS011;44634;54.110;12.138;2022-10-31T14:00:05;25.03;;;11.50;;
16480;SDS011;44634;54.110;12.138;2022-10-31T14:02:35;24.43;;;11.53;;
16480;SDS011;44634;54.110;12.138;2022-10-31T14:05:05;19.27;;;11.17;;
16480;SDS011;44634;54.110;12.138;2022-10-31T14:07:51;19.87;;;10.53;;
16480;SDS011;44634;54.110;12.138;2022-10-31T14:10:22;23.13;;;10.17;;
16480;SDS011;44634;54.110;12.138;2022-10-31T14:12:55;19.47;;;9.87;;
16480;SDS011;44634;54.110;12.138;2022-10-31T14:15:31;19.97;;;9.20;;
16480;SDS011;44634;54.110;12.138;2022-10-31T14:18:00;17.17;;;9.60;;
16480;SDS011;44634;54.110;12.138;2022-10-31T14:20:34;18.30;;;9.57;;
16480;SDS011;44634;54.110;12.138;2022-10-31T14:23:11;18.20;;;9.33;;
16480;SDS011;44634;54.110;12.138;2022-10-31T14:26:01;18.50;;;10.03;;
16480;SDS011;44634;54.110;12.138;2022-10-31T14:28:35;18.10;;;9.03;;
16480;SDS011;44634;54.110;12.138;2022-10-31T14:31:24;18.43;;;9.27;;
16480;SDS011;44634;54.110;12.138;2022-10-31T14:34:01;18.77;;;9.57;;
16480;SDS011;44634;54.110;12.138;2022-10-31T14:36:37;18.80;;;9.37;;
16480;SDS011;44634;54.110;12.138;2022-10-31T14:39:13;18.23;;;8.53;;
16480;SDS011;44634;54.110;12.138;2022-10-31T14:41:48;21.80;;;11.17;;
16480;SDS011;44634;54.110;12.138;2022-10-31T14:44:41;24.07;;;9.93;;
16480;SDS011;44634;54.110;12.138;2022-10-31T14:47:24;18.73;;;9.47;;
16480;SDS011;44634;54.110;12.138;2022-10-31T14:50:09;19.40;;;9.73;;